Portada
METAR-TAF:

METAR-TAF

Aeropuertos :

Ciudad de Kuwait, Kuwait

Aeropuerto Internacional de Kuwait

latitud: 29-13N, longitud: 047-59E, altitud: 55 m

Observación

El informe se hizo hace 29 minutos, a las 19:00 UTC
Viento 6 kt del sur-sureste
Temperatura 36°C
Humedad 45%
Presión 1001 hPa
Visibilidad: 6000 m

METAR: OKBK 171900Z 16006KT 6000 NSC 36/22 Q1001 NOSIG

Hora: 22:29 (19:29 UTC)

Pronóstico

El informe se hizo hace 2 horas y 44 minutos, a las 16:45 UTC
Pronóstico válido del 17 a las 18 UTC al 18 a las 24 UTC
Viento 12 kt del este-sureste
Visibilidad: 6000 m
Temporalmente
del 17 a las 21 UTC al 18 a las 04 UTC
Viento 3 kt con dirección variable
Visibilidad: 3000 m
neblina

TAF: OKBK 171645Z 1718/1824 12012KT 6000 NSC TEMPO 1721/1804 VRB03KT 3000 BR

Observaciones y pronósticos meteorológicos de más de 4000 aeropuertos (mensajes METAR y TAF).

Los puntos amarillos y rojos representan las estaciones disponibles.

Ponga el ratón en el punto deseado para ver el nombre de la estación.

Haga clic para ver las observaciones y los pronósticos meteorológicos.

Para cambiar el mapa : haga clic en los botones verdes con una cruz de color negro para hacer un zoom, en el botón verde con un guión para alejar o en las flechas verdes para mapas adyacentes.


METAR-TAF: